createdAt,value
2018-03-26T00:01:31.785Z,99.90
2018-03-26T00:03:59.265Z,99.90
2018-03-26T00:06:27.537Z,99.90
2018-03-26T00:08:55.124Z,99.90
2018-03-26T00:11:22.599Z,99.90
2018-03-26T00:13:50.075Z,99.90
2018-03-26T00:16:17.566Z,99.90
2018-03-26T00:18:45.991Z,99.90
2018-03-26T00:21:13.503Z,99.90
2018-03-26T00:23:41.754Z,99.90
2018-03-26T00:26:09.234Z,99.90
2018-03-26T00:28:36.779Z,99.90
2018-03-26T00:31:04.298Z,99.90
2018-03-26T00:33:31.791Z,99.90
2018-03-26T00:35:59.265Z,99.90
2018-03-26T00:38:27.510Z,99.90
2018-03-26T00:40:55.057Z,99.90
2018-03-26T00:43:22.554Z,99.90
2018-03-26T00:45:50.041Z,99.90
2018-03-26T00:48:17.544Z,99.90
2018-03-26T00:50:45.026Z,99.90
2018-03-26T00:53:12.485Z,99.90
2018-03-26T00:55:39.959Z,99.90
2018-03-26T00:58:07.418Z,99.90
2018-03-26T01:00:34.923Z,99.90
2018-03-26T01:03:02.394Z,99.90
2018-03-26T01:05:29.887Z,99.90
2018-03-26T01:07:58.123Z,99.90
2018-03-26T01:10:25.582Z,99.90
2018-03-26T01:12:53.062Z,99.90
2018-03-26T01:15:20.551Z,99.90
2018-03-26T01:17:48.306Z,99.90
2018-03-26T01:20:15.845Z,99.90
2018-03-26T01:22:44.090Z,99.90
2018-03-26T01:25:11.585Z,99.90
2018-03-26T01:27:39.827Z,99.90
2018-03-26T01:30:07.371Z,99.90
2018-03-26T01:32:34.874Z,99.90
2018-03-26T01:35:02.392Z,99.90
2018-03-26T01:37:29.866Z,99.90
2018-03-26T01:39:57.418Z,99.90
2018-03-26T01:42:24.975Z,99.90
2018-03-26T01:44:52.502Z,99.90
2018-03-26T01:47:20.005Z,99.90
2018-03-26T01:49:47.487Z,99.90
2018-03-26T01:52:14.982Z,99.90
2018-03-26T01:54:42.492Z,99.90
2018-03-26T01:57:10.750Z,99.90
2018-03-26T01:59:38.289Z,99.90
2018-03-26T02:02:05.767Z,99.90
2018-03-26T02:04:34.088Z,99.90
2018-03-26T02:07:01.626Z,99.90
2018-03-26T02:09:29.132Z,99.90
2018-03-26T02:11:56.642Z,99.90
2018-03-26T02:14:24.240Z,99.90
2018-03-26T02:16:51.729Z,99.90
2018-03-26T02:19:19.210Z,99.90
2018-03-26T02:21:46.735Z,99.90
2018-03-26T02:24:14.226Z,99.90
2018-03-26T02:26:41.742Z,99.90
2018-03-26T02:29:09.269Z,99.90
2018-03-26T02:31:36.763Z,99.90
2018-03-26T02:34:04.239Z,99.90
2018-03-26T02:36:31.726Z,99.90
2018-03-26T02:38:59.231Z,99.90
2018-03-26T02:41:26.732Z,99.90
2018-03-26T02:43:54.307Z,99.90
2018-03-26T02:46:21.795Z,99.90
2018-03-26T02:48:49.310Z,99.90
2018-03-26T02:51:16.781Z,99.90
2018-03-26T02:53:44.271Z,99.90
2018-03-26T02:56:11.785Z,99.90
2018-03-26T02:58:39.256Z,99.90
2018-03-26T03:01:06.799Z,99.90
2018-03-26T03:03:34.321Z,99.90
2018-03-26T03:06:01.801Z,99.90
2018-03-26T03:08:30.182Z,99.90
2018-03-26T03:10:57.685Z,99.90
2018-03-26T03:13:25.172Z,99.90
2018-03-26T03:15:52.635Z,99.90
2018-03-26T03:18:20.110Z,99.90
2018-03-26T03:20:49.565Z,99.90
2018-03-26T03:23:17.042Z,99.90
2018-03-26T03:25:45.420Z,99.90
2018-03-26T03:28:12.948Z,99.90
2018-03-26T03:30:40.451Z,99.90
2018-03-26T03:33:07.922Z,99.90
2018-03-26T03:35:35.390Z,99.90
2018-03-26T03:38:02.882Z,99.90
2018-03-26T03:40:30.358Z,99.90
2018-03-26T03:42:57.886Z,99.90
2018-03-26T03:45:25.329Z,99.90
2018-03-26T03:47:52.806Z,99.90
2018-03-26T03:50:20.279Z,99.90
2018-03-26T03:52:47.790Z,99.90
2018-03-26T03:55:15.375Z,99.90
2018-03-26T03:57:42.864Z,99.90
2018-03-26T04:00:10.336Z,99.90
2018-03-26T04:02:37.832Z,99.90
2018-03-26T04:05:05.323Z,99.90
2018-03-26T04:07:32.805Z,99.90
2018-03-26T04:10:00.284Z,99.90
2018-03-26T04:12:27.754Z,99.90
2018-03-26T04:14:55.217Z,99.90
2018-03-26T04:17:22.682Z,99.90
2018-03-26T04:19:50.163Z,99.90
2018-03-26T04:22:17.743Z,99.90
2018-03-26T04:24:45.227Z,99.90
2018-03-26T04:27:12.686Z,99.90
2018-03-26T04:29:40.199Z,99.90
2018-03-26T04:32:07.695Z,99.90
2018-03-26T04:34:35.143Z,99.90
2018-03-26T04:37:02.639Z,99.90
2018-03-26T04:39:30.125Z,99.90
2018-03-26T04:41:57.608Z,99.90
2018-03-26T04:44:26.686Z,99.90
2018-03-26T04:46:54.186Z,99.90
2018-03-26T04:49:21.647Z,99.90
2018-03-26T04:51:49.918Z,99.90
2018-03-26T04:54:17.373Z,99.90
2018-03-26T04:56:44.837Z,99.90
2018-03-26T04:59:13.105Z,99.90
2018-03-26T05:01:40.590Z,99.90
2018-03-26T05:04:08.077Z,99.90
2018-03-26T05:06:35.567Z,99.90
2018-03-26T05:09:03.095Z,99.90
2018-03-26T05:11:31.331Z,99.90
2018-03-26T05:13:59.562Z,99.90
2018-03-26T05:16:27.085Z,99.90
2018-03-26T05:18:54.529Z,99.90
2018-03-26T05:21:22.004Z,99.90
2018-03-26T05:23:49.494Z,99.90
2018-03-26T05:26:17.128Z,99.90
2018-03-26T05:28:44.608Z,99.90
2018-03-26T05:31:12.121Z,99.90
2018-03-26T05:33:40.358Z,99.90
2018-03-26T05:36:08.659Z,99.90
2018-03-26T05:38:36.135Z,99.90
2018-03-26T05:41:03.608Z,99.90
2018-03-26T05:43:32.118Z,99.90
2018-03-26T05:45:59.600Z,99.90
2018-03-26T05:48:27.883Z,99.90
2018-03-26T05:50:55.362Z,99.90
2018-03-26T05:53:22.862Z,99.90
2018-03-26T05:55:50.323Z,99.90
2018-03-26T05:58:17.783Z,99.90
2018-03-26T06:00:45.235Z,99.90
2018-03-26T06:03:12.795Z,99.90
2018-03-26T06:05:40.273Z,99.90
2018-03-26T06:08:07.743Z,99.90
2018-03-26T06:10:35.968Z,99.90
2018-03-26T06:13:03.472Z,99.90
2018-03-26T06:15:31.756Z,99.90
2018-03-26T06:18:00.179Z,99.90
2018-03-26T06:20:27.652Z,99.90
2018-03-26T06:22:55.134Z,99.90
2018-03-26T06:25:22.603Z,99.90
2018-03-26T06:27:50.080Z,99.90
2018-03-26T06:30:17.620Z,99.90
2018-03-26T06:32:45.114Z,99.90
2018-03-26T06:35:12.586Z,99.90
2018-03-26T06:37:50.876Z,99.90
2018-03-26T06:40:18.390Z,99.90
2018-03-26T06:42:45.853Z,99.90
2018-03-26T06:45:13.315Z,99.90
2018-03-26T06:47:41.586Z,99.90
2018-03-26T06:50:09.099Z,99.90
2018-03-26T06:52:36.596Z,99.90
2018-03-26T06:55:04.858Z,99.90
2018-03-26T06:57:32.294Z,99.90
2018-03-26T06:59:59.771Z,99.90
2018-03-26T07:02:27.247Z,99.90
2018-03-26T07:04:55.483Z,99.90
2018-03-26T07:07:22.957Z,99.90
2018-03-26T07:09:50.448Z,99.90
2018-03-26T07:12:17.935Z,99.90
2018-03-26T07:14:45.430Z,99.90
2018-03-26T07:17:12.918Z,99.90
2018-03-26T07:19:40.431Z,99.90
2018-03-26T07:22:07.921Z,99.90
2018-03-26T07:24:36.180Z,99.90
2018-03-26T07:27:03.671Z,99.90
2018-03-26T07:29:31.151Z,99.90
2018-03-26T07:31:58.654Z,99.90
2018-03-26T07:34:26.131Z,99.90
2018-03-26T07:36:53.660Z,99.90
2018-03-26T07:39:21.143Z,99.90
2018-03-26T07:41:49.396Z,99.90
2018-03-26T07:44:16.887Z,99.90
2018-03-26T07:46:44.364Z,99.90
2018-03-26T07:49:11.851Z,99.90
2018-03-26T07:51:39.315Z,99.90
2018-03-26T07:54:07.439Z,99.90
2018-03-26T07:56:34.903Z,99.90
2018-03-26T07:59:02.354Z,99.90
2018-03-26T08:01:29.807Z,99.90
2018-03-26T08:03:57.298Z,99.90
2018-03-26T08:06:24.812Z,99.90
2018-03-26T08:08:52.280Z,99.90
2018-03-26T08:11:21.429Z,99.90
2018-03-26T08:13:48.883Z,99.90
2018-03-26T08:16:16.337Z,99.90
2018-03-26T08:18:43.816Z,99.90
2018-03-26T08:21:11.310Z,99.90
2018-03-26T08:23:38.791Z,99.90
2018-03-26T08:26:06.280Z,99.90
2018-03-26T08:28:33.741Z,99.90
2018-03-26T08:31:01.279Z,99.90
2018-03-26T08:33:28.720Z,99.90
2018-03-26T08:35:56.161Z,99.90
2018-03-26T08:38:23.650Z,99.90
2018-03-26T08:40:51.123Z,99.90
2018-03-26T08:43:18.578Z,99.90
2018-03-26T08:45:46.042Z,99.90
2018-03-26T08:48:13.507Z,99.90
2018-03-26T08:50:40.970Z,99.90
2018-03-26T08:53:08.422Z,99.90
2018-03-26T08:55:35.904Z,99.90
2018-03-26T08:58:04.127Z,99.90
2018-03-26T09:00:31.596Z,99.90
2018-03-26T09:02:59.056Z,99.90
2018-03-26T09:05:26.529Z,99.90
2018-03-26T09:07:54.006Z,99.90
2018-03-26T09:10:21.488Z,99.90
2018-03-26T09:12:48.946Z,99.90
2018-03-26T09:15:16.399Z,99.90
2018-03-26T09:17:43.860Z,99.90
2018-03-26T09:20:11.334Z,99.90
2018-03-26T09:22:38.796Z,99.90
2018-03-26T09:25:06.258Z,99.90
2018-03-26T09:27:33.773Z,99.90
2018-03-26T09:30:01.220Z,99.90
2018-03-26T09:32:28.740Z,99.90
2018-03-26T09:34:56.191Z,99.90
2018-03-26T09:37:23.678Z,99.90
2018-03-26T09:39:51.152Z,99.90
2018-03-26T09:42:18.652Z,99.90
2018-03-26T09:44:46.115Z,99.90
2018-03-26T09:47:13.603Z,99.90
2018-03-26T09:49:41.083Z,99.90
2018-03-26T09:52:08.554Z,99.90
2018-03-26T09:54:36.045Z,99.90
2018-03-26T09:57:03.514Z,99.90
2018-03-26T09:59:31.619Z,99.90
2018-03-26T10:01:59.183Z,99.90
2018-03-26T10:04:26.647Z,99.90
2018-03-26T10:06:54.151Z,99.90
2018-03-26T10:09:21.604Z,99.90
2018-03-26T10:11:49.839Z,99.90
2018-03-26T10:14:17.310Z,99.90
2018-03-26T10:16:44.783Z,99.90
2018-03-26T10:19:12.249Z,99.90
2018-03-26T10:21:39.714Z,99.90
2018-03-26T10:24:07.186Z,99.90
2018-03-26T10:26:35.470Z,99.90
2018-03-26T10:29:03.712Z,99.90
2018-03-26T10:31:31.181Z,99.90
2018-03-26T10:33:58.643Z,99.90
2018-03-26T10:36:26.091Z,99.90
2018-03-26T10:38:53.585Z,99.90
2018-03-26T10:41:21.806Z,99.90
2018-03-26T10:43:49.262Z,99.90
2018-03-26T10:46:16.727Z,99.90
2018-03-26T10:48:44.196Z,99.90
2018-03-26T10:51:11.684Z,99.90
2018-03-26T10:56:30.174Z,99.90
2018-03-26T10:58:57.626Z,99.90
2018-03-26T11:01:25.085Z,99.90
2018-03-26T11:03:52.553Z,99.90
2018-03-26T11:06:20.039Z,99.90
2018-03-26T11:08:47.514Z,99.90
2018-03-26T11:11:14.990Z,99.90
2018-03-26T11:13:43.218Z,99.90
2018-03-26T11:16:10.711Z,99.90
2018-03-26T11:18:38.171Z,99.90
2018-03-26T11:21:06.424Z,99.90
2018-03-26T11:23:33.899Z,99.90
2018-03-26T11:26:01.379Z,99.90
2018-03-26T11:28:28.860Z,99.90
2018-03-26T11:30:56.342Z,99.90
2018-03-26T11:33:23.802Z,99.90
2018-03-26T11:35:51.297Z,99.90
2018-03-26T11:38:19.548Z,99.90
2018-03-26T11:40:47.044Z,99.90
2018-03-26T11:43:14.510Z,99.90
2018-03-26T11:45:42.035Z,99.90
2018-03-26T11:48:09.521Z,99.90
2018-03-26T11:50:37.006Z,99.90
2018-03-26T11:53:04.475Z,99.90
2018-03-26T11:55:31.945Z,99.90
2018-03-26T11:57:59.410Z,99.90
2018-03-26T12:00:26.871Z,99.90
2018-03-26T12:02:54.326Z,99.90
2018-03-26T12:05:21.800Z,99.90
2018-03-26T12:07:49.254Z,99.90
2018-03-26T12:10:16.700Z,99.90
2018-03-26T12:12:44.174Z,99.90
2018-03-26T12:15:11.651Z,99.90
2018-03-26T12:17:39.118Z,99.90
2018-03-26T12:20:18.412Z,99.90
2018-03-26T12:22:45.884Z,99.90
2018-03-26T12:25:14.131Z,99.90
2018-03-26T12:27:53.381Z,99.90
2018-03-26T12:30:23.451Z,99.90
2018-03-26T12:32:50.924Z,99.90
2018-03-26T12:35:30.230Z,99.90
2018-03-26T12:37:57.690Z,99.90
2018-03-26T12:40:36.965Z,99.90
2018-03-26T12:43:04.453Z,99.90
2018-03-26T12:45:43.586Z,99.90
2018-03-26T12:48:11.058Z,99.90
2018-03-26T12:50:50.270Z,99.90
2018-03-26T12:53:18.556Z,99.90
2018-03-26T12:55:46.011Z,99.90
2018-03-26T12:58:25.165Z,99.90
2018-03-26T13:01:04.481Z,99.90
2018-03-26T13:03:31.947Z,99.90
2018-03-26T13:05:59.418Z,99.90
2018-03-26T13:08:26.906Z,99.90
2018-03-26T13:10:54.368Z,99.90
2018-03-26T13:13:21.840Z,99.90
2018-03-26T13:15:49.326Z,99.90
2018-03-26T13:18:16.794Z,99.90
2018-03-26T13:20:44.241Z,99.90
2018-03-26T13:23:11.713Z,99.40
2018-03-26T13:25:39.175Z,99.30
2018-03-26T13:28:06.673Z,98.50
2018-03-26T13:30:34.141Z,98.10
2018-03-26T13:33:02.384Z,98.40
2018-03-26T13:35:29.852Z,98.40
2018-03-26T13:37:57.337Z,98.60
2018-03-26T13:40:24.842Z,98.40
2018-03-26T13:42:52.343Z,98.70
2018-03-26T13:45:19.828Z,98.60
2018-03-26T13:47:47.274Z,98.30
2018-03-26T13:50:15.504Z,99.20
2018-03-26T13:52:42.950Z,99.10
2018-03-26T13:55:10.410Z,99.50
2018-03-26T13:57:37.872Z,99.60
2018-03-26T14:00:07.095Z,99.40
2018-03-26T14:02:34.691Z,99.20
2018-03-26T14:05:02.168Z,99.00
2018-03-26T14:07:29.775Z,98.70
2018-03-26T14:10:08.902Z,98.60
2018-03-26T14:12:48.160Z,98.30
2018-03-26T14:15:28.042Z,98.90
2018-03-26T14:17:57.946Z,98.80
2018-03-26T14:20:25.406Z,99.20
2018-03-26T14:22:52.889Z,99.20
2018-03-26T14:25:20.424Z,99.50
2018-03-26T14:27:47.890Z,99.70
2018-03-26T14:30:15.346Z,99.60
2018-03-26T14:32:42.804Z,99.60
2018-03-26T14:38:14.517Z,98.90
2018-03-26T14:40:42.027Z,99.10
2018-03-26T14:43:09.530Z,99.00
2018-03-26T14:45:37.000Z,98.90
2018-03-26T14:48:04.515Z,98.50
2018-03-26T14:50:32.022Z,98.60
2018-03-26T14:52:59.520Z,98.70
2018-03-26T14:55:27.096Z,98.40
2018-03-26T14:57:54.626Z,98.40
2018-03-26T15:00:22.093Z,98.10
2018-03-26T15:02:49.584Z,98.10
2018-03-26T15:05:17.057Z,98.20
2018-03-26T15:07:45.346Z,98.20
2018-03-26T15:10:12.832Z,98.20
2018-03-26T15:12:40.310Z,98.50
2018-03-26T15:15:07.806Z,98.80
2018-03-26T15:17:35.298Z,98.60
2018-03-26T15:20:02.784Z,98.80
2018-03-26T15:22:30.249Z,99.20
2018-03-26T15:24:57.717Z,99.40
2018-03-26T15:27:25.227Z,99.50
2018-03-26T15:29:53.413Z,99.60
2018-03-26T15:32:20.898Z,99.50
2018-03-26T15:34:48.384Z,99.70
2018-03-26T15:37:16.618Z,99.90
2018-03-26T15:39:44.094Z,99.90
2018-03-26T15:42:11.570Z,99.90
2018-03-26T15:44:39.805Z,99.90
2018-03-26T15:47:07.256Z,99.90
2018-03-26T15:49:34.723Z,99.90
2018-03-26T15:52:02.174Z,99.90
2018-03-26T15:54:29.660Z,99.90
2018-03-26T15:56:57.129Z,99.90
2018-03-26T15:59:24.598Z,99.90
2018-03-26T16:01:52.371Z,99.90
2018-03-26T16:04:19.830Z,99.90
2018-03-26T16:06:47.316Z,99.90
2018-03-26T16:09:14.784Z,99.90
2018-03-26T16:11:42.255Z,99.90
2018-03-26T16:14:09.713Z,99.90
2018-03-26T16:16:37.166Z,99.90
2018-03-26T16:19:04.622Z,99.90
2018-03-26T16:21:32.105Z,99.90
2018-03-26T16:23:59.560Z,99.90
2018-03-26T16:26:27.081Z,99.90
2018-03-26T16:28:54.557Z,99.90
2018-03-26T16:31:22.039Z,99.90
2018-03-26T16:33:49.529Z,99.90
2018-03-26T16:36:17.023Z,99.90
2018-03-26T16:38:44.485Z,99.90
2018-03-26T16:41:11.938Z,99.90
2018-03-26T16:43:39.613Z,99.90
2018-03-26T16:46:07.225Z,99.90
2018-03-26T16:48:35.002Z,99.90
2018-03-26T16:51:02.580Z,99.90
2018-03-26T16:53:30.157Z,99.90
2018-03-26T16:55:58.424Z,99.90
2018-03-26T16:58:25.925Z,99.90
2018-03-26T17:00:54.211Z,99.90
2018-03-26T17:03:21.691Z,99.90
2018-03-26T17:05:49.435Z,99.90
2018-03-26T17:08:16.982Z,99.90
2018-03-26T17:10:44.537Z,99.90
2018-03-26T17:13:12.034Z,99.90
2018-03-26T17:15:39.692Z,99.90
2018-03-26T17:18:07.240Z,99.90
2018-03-26T17:20:34.777Z,99.90
2018-03-26T17:23:02.271Z,99.90
2018-03-26T17:25:32.220Z,99.90
2018-03-26T17:28:04.977Z,99.90
2018-03-26T17:30:32.599Z,99.90
2018-03-26T17:33:00.092Z,99.90
2018-03-26T17:35:27.610Z,99.90
2018-03-26T17:37:55.146Z,99.90
2018-03-26T17:40:22.740Z,99.90
2018-03-26T17:42:50.248Z,99.90
2018-03-26T17:45:17.952Z,99.90
2018-03-26T17:47:46.285Z,99.90
2018-03-26T17:50:13.754Z,99.90
2018-03-26T17:52:41.237Z,99.90
2018-03-26T17:55:08.765Z,99.90
2018-03-26T17:57:36.232Z,99.90
2018-03-26T18:00:03.754Z,99.90
2018-03-26T18:02:31.248Z,99.90
2018-03-26T18:04:59.590Z,99.90
2018-03-26T18:07:27.071Z,99.90
2018-03-26T18:09:54.757Z,99.90
2018-03-26T18:12:23.017Z,99.90
2018-03-26T18:14:50.498Z,99.90
2018-03-26T18:17:18.066Z,99.90
2018-03-26T18:19:45.623Z,99.90
2018-03-26T18:22:13.088Z,99.90
2018-03-26T18:24:40.580Z,99.90
2018-03-26T18:27:08.055Z,99.90
2018-03-26T18:29:35.593Z,99.90
2018-03-26T18:32:03.064Z,99.90
2018-03-26T18:34:31.290Z,99.90
2018-03-26T18:36:59.443Z,99.90
2018-03-26T18:39:26.962Z,99.90
2018-03-26T18:41:54.422Z,99.90
2018-03-26T18:44:21.945Z,99.90
2018-03-26T18:46:49.482Z,99.90
2018-03-26T18:49:17.728Z,99.90
2018-03-26T18:51:45.295Z,99.90
2018-03-26T18:54:12.782Z,99.90
2018-03-26T18:56:40.504Z,99.90
2018-03-26T18:59:08.063Z,99.90
2018-03-26T19:01:35.541Z,99.90
2018-03-26T19:04:03.937Z,99.90
2018-03-26T19:06:31.544Z,99.90
2018-03-26T19:08:59.146Z,99.90
2018-03-26T19:11:27.030Z,99.90
2018-03-26T19:13:54.638Z,99.90
2018-03-26T19:16:22.491Z,99.90
2018-03-26T19:18:50.828Z,99.90
2018-03-26T19:21:18.296Z,99.90
2018-03-26T19:23:45.770Z,99.90
2018-03-26T19:26:13.336Z,99.90
2018-03-26T19:28:41.179Z,99.90
2018-03-26T19:31:09.878Z,99.90
2018-03-26T19:33:37.556Z,99.90
2018-03-26T19:36:05.363Z,99.90
2018-03-26T19:38:34.759Z,99.90
2018-03-26T19:41:02.243Z,99.90
2018-03-26T19:43:29.763Z,99.90
2018-03-26T19:45:57.263Z,99.90
2018-03-26T19:48:24.964Z,99.90
2018-03-26T19:50:52.864Z,99.90
2018-03-26T19:53:20.420Z,99.90
2018-03-26T19:55:48.104Z,99.90
2018-03-26T19:58:15.704Z,99.90
2018-03-26T20:00:43.700Z,99.90
2018-03-26T20:03:11.219Z,99.90
2018-03-26T20:05:38.890Z,99.90
2018-03-26T20:08:09.846Z,99.90
2018-03-26T20:10:37.598Z,99.90
2018-03-26T20:13:07.258Z,99.90
2018-03-26T20:15:38.538Z,99.90
2018-03-26T20:18:06.022Z,99.90
2018-03-26T20:20:33.565Z,99.90
2018-03-26T20:23:01.048Z,99.90
2018-03-26T20:25:28.573Z,99.90
2018-03-26T20:27:56.038Z,99.90
2018-03-26T20:30:23.583Z,99.90
2018-03-26T20:32:51.090Z,99.90
2018-03-26T20:35:18.558Z,99.90
2018-03-26T20:37:46.277Z,99.90
2018-03-26T20:40:13.960Z,99.90
2018-03-26T20:42:43.119Z,99.90
2018-03-26T20:45:10.611Z,99.90
2018-03-26T20:47:38.096Z,99.90
2018-03-26T20:50:06.369Z,99.90
2018-03-26T20:52:33.894Z,99.90
2018-03-26T20:55:01.367Z,99.90
2018-03-26T20:57:28.843Z,99.90
2018-03-26T20:59:57.131Z,99.90
2018-03-26T21:02:25.400Z,99.90
2018-03-26T21:04:52.924Z,99.90
2018-03-26T21:07:20.431Z,99.90
2018-03-26T21:09:47.901Z,99.90
2018-03-26T21:12:15.384Z,99.90
2018-03-26T21:14:42.867Z,99.90
2018-03-26T21:17:10.459Z,99.90
2018-03-26T21:19:37.984Z,99.90
2018-03-26T21:22:06.270Z,99.90
2018-03-26T21:24:34.557Z,99.90
2018-03-26T21:27:02.327Z,99.90
2018-03-26T21:29:30.653Z,99.90
2018-03-26T21:31:58.151Z,99.90
2018-03-26T21:34:26.438Z,99.90
2018-03-26T21:36:53.982Z,99.90
2018-03-26T21:39:22.206Z,99.90
2018-03-26T21:41:49.705Z,99.90
2018-03-26T21:44:17.177Z,99.90
2018-03-26T21:46:45.424Z,99.90
2018-03-26T21:49:12.882Z,99.90
2018-03-26T21:51:40.344Z,99.90
2018-03-26T21:54:07.872Z,99.90
2018-03-26T21:56:35.342Z,99.90
2018-03-26T21:59:02.810Z,99.90
2018-03-26T22:01:30.270Z,99.90
2018-03-26T22:03:57.725Z,99.90
2018-03-26T22:06:25.227Z,99.90
2018-03-26T22:08:53.503Z,99.90
2018-03-26T22:11:20.981Z,99.90
2018-03-26T22:13:48.447Z,99.90
2018-03-26T22:16:15.925Z,99.90
2018-03-26T22:18:43.381Z,99.90
2018-03-26T22:21:10.864Z,99.90
2018-03-26T22:23:38.328Z,99.90
2018-03-26T22:26:05.883Z,99.90
2018-03-26T22:28:34.118Z,99.90
2018-03-26T22:31:01.587Z,99.90
2018-03-26T22:33:29.050Z,99.90
2018-03-26T22:35:56.513Z,99.90
2018-03-26T22:38:23.983Z,99.90
2018-03-26T22:40:51.453Z,99.90
2018-03-26T22:43:18.945Z,99.90
2018-03-26T22:45:46.427Z,99.90
2018-03-26T22:48:13.934Z,99.90
2018-03-26T22:50:42.168Z,99.90
2018-03-26T22:53:09.646Z,99.90
2018-03-26T22:55:37.112Z,99.90
2018-03-26T22:58:04.601Z,99.90
2018-03-26T23:00:32.094Z,99.90
2018-03-26T23:02:59.568Z,99.90
2018-03-26T23:05:27.227Z,99.90
2018-03-26T23:07:54.767Z,99.90
2018-03-26T23:10:22.251Z,99.90
2018-03-26T23:12:49.718Z,99.90
2018-03-26T23:15:17.945Z,99.90
2018-03-26T23:17:45.405Z,99.90
2018-03-26T23:20:12.897Z,99.90
2018-03-26T23:22:48.037Z,99.90
2018-03-26T23:25:15.554Z,99.90
2018-03-26T23:27:43.029Z,99.90
2018-03-26T23:30:10.505Z,99.90
2018-03-26T23:32:37.978Z,99.90
2018-03-26T23:35:06.244Z,99.90
2018-03-26T23:37:34.514Z,99.90
2018-03-26T23:40:02.781Z,99.90
2018-03-26T23:42:30.250Z,99.90
2018-03-26T23:44:58.487Z,99.90
2018-03-26T23:47:25.940Z,99.90
2018-03-26T23:49:53.398Z,99.90
2018-03-26T23:52:20.880Z,99.90
2018-03-26T23:54:48.357Z,99.90
2018-03-26T23:57:16.632Z,99.90
2018-03-26T23:59:44.901Z,99.90
